Time;durP1;ratioP1;P1;durP2;ratioP2;P2;SDS_P1;SDS_P2;PMS_P1;PMS_P2;Temp;Humidity;BMP_temperature;BMP_pressure;BME280_temperature;BME280_humidity;BME280_pressure;Samples;Min_cycle;Max_cycle;Signal;HPM_P1;HPM_P2
2022/05/14 00:01:01;;;;;;;9.63;4.70;;;11.90;75.70;;;10.79;71.71;98412.66;5083372;28;20448;-72
2022/05/14 00:03:35;;;;;;;7.03;4.43;;;11.90;75.50;;;10.73;72.34;98398.97;5074347;28;20539;-70
2022/05/14 00:06:06;;;;;;;5.63;4.90;;;11.90;75.60;;;10.68;72.40;98403.31;5074467;28;20441;-70
2022/05/14 00:08:33;;;;;;;8.47;4.27;;;11.80;75.90;;;10.57;72.65;98396.66;5079758;28;20487;-71
2022/05/14 00:13:46;;;;;;;7.20;4.90;;;11.70;76.20;;;10.56;73.25;98398.50;5076210;28;20498;-70
2022/05/14 00:16:14;;;;;;;9.90;5.77;;;11.70;76.80;;;10.46;73.74;98401.63;5079813;28;20467;-71
2022/05/14 00:18:44;;;;;;;6.03;4.90;;;11.60;77.30;;;10.39;74.07;98400.75;5082586;28;20448;-70
2022/05/14 00:21:13;;;;;;;5.63;5.10;;;11.50;77.40;;;10.34;72.89;98397.81;5084724;28;20457;-70
2022/05/14 00:23:40;;;;;;;6.80;5.30;;;11.50;77.40;;;10.34;73.64;98400.53;5083292;28;20548;-71
2022/05/14 00:26:07;;;;;;;7.80;5.20;;;11.50;77.40;;;10.20;73.36;98387.00;5087194;28;20480;-73
2022/05/14 00:28:34;;;;;;;6.43;5.10;;;11.40;77.40;;;10.26;74.13;98395.34;5076692;28;20555;-71
2022/05/14 00:31:01;;;;;;;5.37;4.80;;;11.30;77.90;;;10.19;73.59;98393.44;5081239;28;20542;-71
2022/05/14 00:33:29;;;;;;;6.23;5.20;;;11.30;77.90;;;10.19;74.27;98401.53;5082025;28;20448;-69
2022/05/14 00:35:58;;;;;;;7.60;4.93;;;11.30;78.80;;;10.13;74.76;98398.81;5084001;28;20489;-68
2022/05/14 00:38:26;;;;;;;5.00;4.57;;;11.30;78.70;;;10.17;74.97;98398.19;5082367;28;20542;-70
2022/05/14 00:40:58;;;;;;;6.27;5.30;;;11.30;78.80;;;10.16;73.96;98393.84;5082941;28;20583;-75
2022/05/14 00:43:26;;;;;;;5.53;4.80;;;11.30;78.70;;;10.15;74.71;98388.63;5084137;28;20446;-70
2022/05/14 00:45:57;;;;;;;6.00;5.00;;;11.20;79.40;;;10.01;74.46;98387.78;5073640;28;20456;-74
2022/05/14 00:48:26;;;;;;;5.53;4.93;;;11.20;79.40;;;9.89;75.54;98385.66;5079982;28;20950;-72
2022/05/14 00:50:58;;;;;;;5.43;4.77;;;11.00;80.20;;;9.96;75.58;98385.69;5081043;28;20448;-72
2022/05/14 00:53:30;;;;;;;6.03;5.03;;;11.10;80.30;;;9.98;76.62;98396.28;5077337;28;20482;-70
2022/05/14 00:56:03;;;;;;;7.33;5.73;;;11.00;80.80;;;9.96;76.25;98384.84;5073344;28;20455;-70
2022/05/14 00:58:36;;;;;;;5.50;5.00;;;11.10;80.80;;;9.98;75.36;98394.41;5080477;28;20530;-70
2022/05/14 01:01:05;;;;;;;6.50;4.93;;;11.10;80.20;;;9.88;75.47;98384.00;5077331;28;20458;-73
2022/05/14 01:03:32;;;;;;;4.70;4.40;;;11.10;80.20;;;9.91;74.74;98394.38;5079389;28;20534;-70
2022/05/14 01:06:03;;;;;;;5.50;4.67;;;11.00;80.00;;;9.86;75.58;98386.06;5078846;28;20911;-70
2022/05/14 01:08:31;;;;;;;8.20;4.90;;;11.00;80.00;;;9.86;75.13;98383.34;5074051;28;20488;-71
2022/05/14 01:10:59;;;;;;;7.33;5.03;;;11.00;80.10;;;9.86;75.30;98391.47;5073171;28;20539;-71
2022/05/14 01:13:27;;;;;;;6.10;5.50;;;11.00;79.90;;;9.75;75.90;98379.38;5079233;28;20477;-70
2022/05/14 01:15:58;;;;;;;5.23;4.70;;;11.00;80.10;;;9.71;75.95;98371.88;5087603;28;20461;-73
2022/05/14 01:18:29;;;;;;;6.83;5.70;;;11.00;80.80;;;9.85;75.50;98387.09;5077743;28;20443;-70
2022/05/14 01:21:03;;;;;;;6.40;5.27;;;11.00;80.50;;;9.84;75.36;98387.28;5083117;28;20494;-72
2022/05/14 01:26:30;;;;;;;5.77;5.17;;;10.90;79.70;;;9.77;75.14;98389.97;5085587;28;20458;-69
2022/05/14 01:28:58;;;;;;;6.43;5.03;;;10.90;80.40;;;9.78;75.11;98388.91;5090658;28;20530;-70
2022/05/14 01:31:27;;;;;;;7.13;5.10;;;10.90;80.10;;;9.74;76.06;98382.28;5087546;28;20543;-70
2022/05/14 01:33:55;;;;;;;7.63;5.40;;;10.90;80.90;;;9.76;75.75;98386.44;5075734;28;21177;-74
2022/05/14 01:36:22;;;;;;;5.20;4.70;;;10.90;80.30;;;9.70;75.56;98391.81;5088100;28;20485;-70
2022/05/14 01:38:49;;;;;;;8.87;5.23;;;10.80;80.30;;;9.64;75.82;98388.03;5079704;28;20558;-72
2022/05/14 01:41:17;;;;;;;5.50;5.00;;;10.80;80.50;;;9.51;75.63;98367.25;5081495;28;20814;-70
2022/05/14 01:43:45;;;;;;;8.50;5.00;;;10.80;80.40;;;9.60;75.98;98389.47;5080389;28;20543;-69
2022/05/14 01:46:12;;;;;;;6.27;5.30;;;10.80;80.30;;;9.48;76.17;98379.25;5078946;28;20460;-69
2022/05/14 01:48:39;;;;;;;7.80;5.53;;;10.70;80.60;;;9.46;75.76;98385.88;5081306;28;20459;-70
2022/05/14 01:51:07;;;;;;;7.50;5.83;;;10.60;80.50;;;9.39;77.45;98390.41;5085862;28;20491;-69
2022/05/14 01:53:34;;;;;;;5.47;5.07;;;10.60;81.50;;;9.32;76.41;98385.78;5075839;28;20570;-72
2022/05/14 01:56:03;;;;;;;5.60;5.20;;;10.50;81.20;;;9.32;76.19;98391.19;5073765;28;20448;-69
2022/05/14 01:58:39;;;;;;;6.90;5.30;;;10.50;81.10;;;9.24;77.10;98382.41;5073406;28;20447;-71
2022/05/14 02:01:14;;;;;;;9.00;5.47;;;10.40;81.40;;;9.14;77.92;98385.47;5081691;28;20995;-74
2022/05/14 02:03:45;;;;;;;7.60;5.27;;;10.30;82.00;;;9.11;77.11;98393.97;5077633;28;20450;-71
2022/05/14 02:06:13;;;;;;;8.30;5.33;;;10.30;82.30;;;9.01;77.26;98378.94;5097198;27;20459;-67
2022/05/14 02:08:41;;;;;;;7.63;4.93;;;10.30;82.30;;;9.04;77.17;98378.59;5080146;28;20459;-74
2022/05/14 02:11:09;;;;;;;5.90;4.83;;;10.20;82.30;;;8.98;77.33;98373.97;5079919;28;20552;-70
2022/05/14 02:13:37;;;;;;;9.10;5.60;;;10.20;82.30;;;8.96;78.14;98381.41;5080074;28;20540;-67
2022/05/14 02:16:05;;;;;;;6.30;4.90;;;10.10;83.00;;;8.99;77.64;98380.19;5081292;28;20543;-67
2022/05/14 02:18:34;;;;;;;5.30;4.80;;;10.10;83.10;;;8.96;77.37;98381.41;5075142;28;20547;-68
2022/05/14 02:21:01;;;;;;;6.10;5.50;;;10.10;82.60;;;8.92;77.63;98374.75;5081509;28;20469;-68
2022/05/14 02:23:28;;;;;;;5.90;5.30;;;10.10;82.30;;;8.86;77.79;98381.75;5082022;28;20974;-71
2022/05/14 02:25:55;;;;;;;6.03;4.60;;;10.10;82.50;;;8.77;78.43;98382.91;5074537;28;21264;-73
2022/05/14 02:28:23;;;;;;;5.77;5.23;;;10.00;83.20;;;8.79;78.33;98379.00;5075290;28;20542;-71
2022/05/14 02:30:50;;;;;;;10.20;5.83;;;10.00;83.70;;;8.71;78.88;98372.94;5079991;28;20543;-69
2022/05/14 02:33:18;;;;;;;6.67;5.47;;;10.00;84.00;;;8.78;78.59;98376.50;5079858;28;20958;-69
2022/05/14 02:35:46;;;;;;;11.73;5.57;;;9.90;85.20;;;8.70;78.36;98369.38;5088884;28;20464;-69
2022/05/14 02:38:15;;;;;;;5.73;5.10;;;9.90;84.80;;;8.65;78.91;98374.53;5087116;28;20976;-68
2022/05/14 02:40:43;;;;;;;5.20;4.77;;;9.90;84.90;;;8.49;79.53;98380.97;5091937;28;20469;-70
2022/05/14 02:43:10;;;;;;;7.40;5.10;;;9.70;85.50;;;8.48;79.19;98374.78;5083861;28;20463;-72
2022/05/14 02:45:38;;;;;;;8.20;5.83;;;9.70;85.50;;;8.21;79.36;98355.66;5082829;28;20510;-70
2022/05/14 02:48:06;;;;;;;6.20;5.53;;;9.60;85.50;;;8.18;79.92;98374.06;5079452;28;20477;-70
2022/05/14 02:50:34;;;;;;;5.00;4.50;;;9.50;85.70;;;8.13;79.97;98369.28;5088405;28;21006;-69
2022/05/14 02:53:02;;;;;;;4.97;4.57;;;9.40;86.30;;;8.16;80.10;98366.19;5088365;28;21006;-69
2022/05/14 02:55:30;;;;;;;5.77;5.07;;;9.40;86.50;;;8.09;80.38;98370.66;5087889;28;20455;-70
2022/05/14 02:57:57;;;;;;;7.23;5.60;;;9.30;86.90;;;7.92;80.18;98359.31;5078596;28;20950;-69
2022/05/14 03:00:25;;;;;;;7.50;5.17;;;9.30;86.60;;;8.02;80.67;98369.75;5080792;28;20467;-68
2022/05/14 03:02:53;;;;;;;5.70;5.10;;;9.30;87.30;;;8.05;80.61;98369.38;5083852;28;21293;-68
2022/05/14 03:05:22;;;;;;;6.73;5.60;;;9.30;87.70;;;7.89;80.96;98371.28;5080240;28;20457;-69
2022/05/14 03:07:49;;;;;;;6.70;5.43;;;9.20;87.50;;;7.75;81.40;98364.06;5072998;28;20910;-70
2022/05/14 03:10:18;;;;;;;5.80;5.17;;;9.10;88.20;;;7.88;81.02;98368.75;5072240;28;20455;-70
2022/05/14 03:12:45;;;;;;;5.23;4.73;;;9.10;88.20;;;7.90;80.97;98367.56;5077449;28;20945;-70
2022/05/14 03:15:14;;;;;;;7.33;5.10;;;9.10;88.10;;;7.85;81.21;98366.47;5082554;28;20466;-72
2022/05/14 03:17:41;;;;;;;6.83;6.10;;;9.10;88.60;;;7.77;81.12;98359.34;5082190;28;20463;-71
2022/05/14 03:20:12;;;;;;;5.90;5.40;;;9.10;88.60;;;7.26;81.58;98276.81;5078004;28;20448;-69
2022/05/14 03:22:41;;;;;;;6.03;4.87;;;9.10;89.10;;;7.80;81.74;98375.09;5075853;28;20915;-71
2022/05/14 03:25:10;;;;;;;10.23;5.47;;;9.00;89.00;;;7.42;81.95;98316.09;5079864;28;20506;-69
2022/05/14 03:27:39;;;;;;;9.20;5.70;;;9.00;89.00;;;7.74;81.77;98367.78;5080924;28;20494;-70
2022/05/14 03:30:07;;;;;;;6.27;5.67;;;9.00;89.20;;;7.75;81.87;98374.84;5080741;28;20452;-69
2022/05/14 03:32:35;;;;;;;6.57;5.23;;;9.00;89.70;;;7.80;81.71;98383.16;5081620;28;20481;-69
2022/05/14 03:35:05;;;;;;;11.63;5.50;;;9.00;89.90;;;7.78;82.21;98385.22;5081021;28;20476;-69
2022/05/14 03:37:33;;;;;;;7.40;6.03;;;9.00;89.80;;;7.74;82.23;98381.22;5082295;28;20504;-71
2022/05/14 03:40:00;;;;;;;8.93;5.97;;;9.00;89.70;;;7.72;82.26;98377.91;5101731;28;21116;-69
2022/05/14 03:42:28;;;;;;;8.80;6.30;;;9.00;90.00;;;7.70;82.18;98377.25;5075393;28;20601;-70
2022/05/14 03:44:56;;;;;;;8.53;5.80;;;9.00;90.10;;;7.80;82.33;98388.53;5080846;28;20554;-70
2022/05/14 03:47:24;;;;;;;5.50;5.00;;;9.00;90.00;;;7.69;82.12;98370.22;5073747;28;20463;-69
2022/05/14 03:49:51;;;;;;;8.03;6.03;;;9.00;90.00;;;7.83;82.05;98392.72;5084526;28;20492;-70
2022/05/14 03:52:19;;;;;;;6.10;5.50;;;9.10;89.70;;;7.94;81.44;98397.63;5072880;28;20550;-70
2022/05/14 03:54:46;;;;;;;9.13;5.50;;;9.10;89.60;;;7.90;81.84;98399.84;5077944;28;20571;-71
2022/05/14 03:57:14;;;;;;;7.70;5.07;;;9.10;89.60;;;7.85;82.43;98393.34;5074114;28;20465;-69
2022/05/14 03:59:41;;;;;;;6.10;5.10;;;9.10;90.00;;;8.01;81.58;98386.94;5082780;28;20460;-72
2022/05/14 04:02:10;;;;;;;10.40;5.67;;;9.20;89.60;;;8.17;80.81;98394.78;5078571;28;20462;-70
2022/05/14 04:04:37;;;;;;;6.20;5.53;;;9.30;88.50;;;8.20;80.88;98393.56;5076686;28;20542;-70
2022/05/14 04:07:05;;;;;;;6.83;4.77;;;9.40;88.40;;;8.29;81.09;98391.59;5080870;28;20645;-69
2022/05/14 04:09:32;;;;;;;5.67;5.17;;;9.50;88.80;;;8.22;81.33;98397.72;5082153;28;20454;-70
2022/05/14 04:11:59;;;;;;;6.27;5.60;;;9.50;88.30;;;8.45;80.30;98396.72;5080428;28;20522;-70
2022/05/14 04:14:26;;;;;;;9.70;5.60;;;9.60;88.20;;;8.44;79.52;98372.66;5082012;28;20472;-69
2022/05/14 04:16:54;;;;;;;6.40;5.73;;;9.70;87.10;;;8.53;79.27;98384.16;5077514;28;20453;-68
2022/05/14 04:19:22;;;;;;;7.80;5.60;;;9.70;86.30;;;9.13;77.14;98375.72;5076056;28;20576;-70
2022/05/14 04:21:49;;;;;;;6.80;5.30;;;10.20;82.70;;;9.78;73.99;98378.13;5080852;28;20464;-71
2022/05/14 04:24:17;;;;;;;5.83;5.30;;;11.00;78.80;;;10.34;70.59;98377.06;5083235;28;20472;-72
2022/05/14 04:26:43;;;;;;;5.60;4.90;;;11.70;76.30;;;11.14;68.47;98386.25;5078601;28;20451;-73
2022/05/14 04:29:11;;;;;;;9.17;5.17;;;12.30;74.50;;;11.50;66.80;98386.81;5077043;28;20481;-70
2022/05/14 04:31:40;;;;;;;9.50;4.83;;;12.80;73.00;;;11.85;65.47;98370.22;5076293;28;20453;-74
2022/05/14 04:34:07;;;;;;;8.10;4.83;;;13.20;72.00;;;11.93;64.85;98384.59;5081438;28;20912;-71
2022/05/14 04:36:36;;;;;;;6.60;4.57;;;13.40;70.30;;;12.03;64.40;98383.09;5084209;28;20456;-71
2022/05/14 04:39:04;;;;;;;6.00;4.80;;;13.50;69.70;;;12.43;63.17;98381.19;5080981;28;20454;-72
2022/05/14 04:41:31;;;;;;;6.67;4.73;;;13.90;68.70;;;12.28;63.76;98387.75;5074889;28;20505;-68
2022/05/14 04:43:59;;;;;;;5.10;4.60;;;14.00;68.10;;;12.58;63.19;98384.41;5074631;28;20452;-84
2022/05/14 04:46:26;;;;;;;8.00;5.00;;;14.10;67.90;;;13.29;59.77;98346.25;5103854;28;20459;-78
2022/05/14 04:48:53;;;;;;;8.03;4.80;;;14.80;66.80;;;13.60;59.64;98384.38;5085714;28;20532;-79
2022/05/14 04:51:21;;;;;;;5.33;4.90;;;15.00;65.40;;;14.00;58.00;98370.31;5086511;28;20529;-78
2022/05/14 04:53:50;;;;;;;4.90;4.50;;;15.50;64.10;;;14.09;57.76;98392.56;5088526;28;20503;-82
2022/05/14 04:56:17;;;;;;;4.53;4.13;;;15.80;63.10;;;15.33;54.83;98385.84;5086030;28;20519;-81
2022/05/14 04:58:44;;;;;;;4.63;4.23;;;16.30;62.30;;;15.83;52.95;98388.00;5090812;28;20446;-78
2022/05/14 05:01:11;;;;;;;5.27;4.77;;;16.90;60.90;;;15.64;54.31;98389.25;5085041;28;20537;-80
2022/05/14 05:03:38;;;;;;;5.30;4.10;;;16.80;60.40;;;15.37;54.28;98389.75;5086444;28;20484;-81
2022/05/14 05:06:05;;;;;;;9.97;4.13;;;16.80;60.10;;;15.55;52.53;98381.47;5074816;28;20490;-82
2022/05/14 05:08:34;;;;;;;6.20;4.70;;;16.90;59.30;;;14.99;54.24;98395.44;5087549;28;20454;-74
2022/05/14 05:11:03;;;;;;;4.80;4.33;;;16.60;58.90;;;14.66;55.00;98402.22;5082600;28;20969;-75
2022/05/14 05:13:31;;;;;;;5.60;4.23;;;16.20;59.10;;;15.39;53.23;98393.06;5089514;28;20463;-73
2022/05/14 05:15:59;;;;;;;4.67;4.13;;;16.60;58.90;;;14.91;54.75;98381.34;5079201;28;20457;-78
2022/05/14 05:18:26;;;;;;;5.70;4.80;;;16.30;59.20;;;15.42;53.31;98396.13;5082636;28;20490;-73
2022/05/14 05:20:56;;;;;;;4.80;4.40;;;16.70;58.70;;;15.52;52.57;98397.44;5078866;28;20520;-79
2022/05/14 05:23:26;;;;;;;6.90;4.30;;;16.90;58.30;;;15.63;52.62;98401.22;5077415;28;20454;-81
2022/05/14 05:25:54;;;;;;;5.10;4.40;;;17.10;57.90;;;15.24;52.87;98405.28;5078232;28;20458;-79
2022/05/14 05:28:24;;;;;;;4.90;4.40;;;17.10;57.20;;;15.03;54.28;98406.69;5085737;28;20537;-78
2022/05/14 05:30:51;;;;;;;4.80;4.20;;;16.70;58.00;;;14.80;54.81;98404.75;5087925;28;20541;-75
2022/05/14 05:33:21;;;;;;;4.47;4.07;;;16.50;58.00;;;15.54;52.96;98400.75;5084049;28;20461;-75
2022/05/14 05:35:48;;;;;;;5.00;4.50;;;16.80;58.30;;;15.84;51.76;98400.56;5081419;28;20544;-73
2022/05/14 05:38:16;;;;;;;5.17;4.63;;;17.30;57.40;;;16.16;50.95;98407.50;5086142;28;20467;-75
2022/05/14 05:40:44;;;;;;;4.47;4.07;;;17.70;56.90;;;16.80;50.11;98419.31;5098525;28;20925;-78
2022/05/14 05:43:12;;;;;;;7.00;4.80;;;17.90;56.70;;;16.36;50.24;98401.63;5082935;28;20485;-74
2022/05/14 05:45:44;;;;;;;5.40;4.90;;;17.90;56.20;;;15.61;52.49;98419.69;5080409;28;20480;-78
2022/05/14 05:48:11;;;;;;;5.10;4.60;;;17.50;56.20;;;15.79;51.84;98419.53;5084486;28;20451;-73
2022/05/14 05:50:39;;;;;;;4.53;4.00;;;17.60;56.20;;;15.98;51.67;98409.34;5080574;28;20545;-80
2022/05/14 05:53:07;;;;;;;6.13;4.03;;;17.70;56.30;;;16.38;51.13;98415.84;5081185;28;20958;-71
2022/05/14 05:58:20;;;;;;;5.17;4.67;;;17.80;56.10;;;16.42;50.88;98427.91;5073633;28;20447;-75
2022/05/14 06:00:49;;;;;;;4.60;4.20;;;18.00;55.70;;;17.16;49.59;98413.66;5079348;28;20471;-72
2022/05/14 06:03:16;;;;;;;6.17;4.53;;;18.30;55.90;;;16.74;49.59;98423.84;5076633;28;21585;-80
2022/05/14 06:05:43;;;;;;;6.60;4.40;;;18.40;55.10;;;16.66;50.30;98422.34;5086107;28;20533;-75
2022/05/14 06:08:14;;;;;;;5.90;4.33;;;18.50;55.30;;;15.84;52.51;98416.09;5080247;28;20541;-71
2022/05/14 06:10:42;;;;;;;5.17;4.70;;;17.80;55.70;;;14.19;56.90;98423.78;5085016;28;20455;-73
2022/05/14 06:13:10;;;;;;;5.67;4.30;;;16.40;57.20;;;13.52;59.15;98425.41;5078298;28;20461;-69
2022/05/14 06:15:40;;;;;;;6.50;4.10;;;15.30;58.80;;;13.50;60.28;98428.31;5081628;28;21122;-68
2022/05/14 06:18:09;;;;;;;8.47;4.90;;;14.90;60.70;;;13.12;61.14;98432.00;5079894;28;20500;-70
2022/05/14 06:20:38;;;;;;;5.10;4.60;;;14.50;61.40;;;13.15;62.30;98429.66;5084786;28;20499;-74
2022/05/14 06:23:06;;;;;;;5.57;5.03;;;14.30;63.10;;;13.62;61.48;98430.31;5079909;28;20465;-72
2022/05/14 06:25:33;;;;;;;7.53;4.40;;;14.50;63.60;;;13.76;60.88;98437.25;5079414;28;20803;-70
2022/05/14 06:28:00;;;;;;;6.23;4.77;;;14.70;64.00;;;13.85;60.48;98435.88;5085566;28;20461;-73
2022/05/14 06:30:28;;;;;;;7.00;4.73;;;14.80;63.50;;;14.11;59.72;98433.91;5082251;28;20964;-73
2022/05/14 06:33:01;;;;;;;5.83;4.40;;;15.10;63.40;;;13.91;59.71;98438.75;5076089;28;20473;-69
2022/05/14 06:35:30;;;;;;;5.57;4.80;;;15.00;63.00;;;13.74;59.57;98429.31;5080511;28;20490;-74
2022/05/14 06:37:57;;;;;;;10.10;5.60;;;14.90;62.30;;;13.60;60.16;98431.34;5086569;28;20537;-70
2022/05/14 06:40:24;;;;;;;5.60;4.73;;;14.80;62.80;;;13.51;60.49;98440.84;5082814;28;20485;-75
2022/05/14 06:42:51;;;;;;;5.40;5.00;;;14.70;62.70;;;13.71;59.61;98431.66;5082265;28;20464;-74
2022/05/14 06:45:18;;;;;;;5.97;5.30;;;14.70;62.50;;;13.69;59.48;98434.59;5082762;28;20807;-73
2022/05/14 06:47:46;;;;;;;4.83;4.43;;;14.70;62.20;;;14.03;59.12;98432.31;5101496;28;20483;-76
2022/05/14 06:50:13;;;;;;;5.13;4.63;;;15.00;62.90;;;14.40;58.66;98436.03;5081844;28;21076;-79
2022/05/14 06:52:46;;;;;;;8.47;5.10;;;15.30;63.00;;;14.50;57.43;98432.78;5075793;28;20447;-72
2022/05/14 06:55:19;;;;;;;5.33;4.83;;;15.40;61.70;;;14.78;57.20;98431.34;5083438;28;20554;-74
2022/05/14 06:57:46;;;;;;;4.50;4.10;;;15.60;61.80;;;15.00;56.90;98437.06;5076686;28;20533;-72
2022/05/14 07:00:15;;;;;;;6.00;4.67;;;15.90;61.80;;;14.91;55.01;98430.31;5083970;28;20463;-74
2022/05/14 07:02:43;;;;;;;5.10;4.50;;;16.00;60.00;;;14.90;55.39;98445.78;5074189;28;21176;-74
2022/05/14 07:07:57;;;;;;;4.20;3.80;;;16.00;60.30;;;15.00;54.91;98439.78;5086113;28;20520;-74
2022/05/14 07:10:25;;;;;;;6.30;4.97;;;16.10;59.80;;;15.01;54.61;98425.94;5087478;28;20464;-71
2022/05/14 07:12:53;;;;;;;7.17;4.63;;;16.10;59.40;;;15.04;53.80;98381.13;5082425;28;20921;-72
2022/05/14 07:15:20;;;;;;;8.27;4.67;;;16.30;59.20;;;15.25;54.05;98436.88;5075989;28;20473;-73
2022/05/14 07:17:48;;;;;;;6.03;4.40;;;16.30;59.10;;;15.46;53.73;98436.50;5079086;28;20461;-83
2022/05/14 07:20:15;;;;;;;5.60;4.03;;;16.40;59.00;;;15.72;53.70;98432.47;5078074;28;20491;-73
2022/05/14 07:22:42;;;;;;;7.20;5.47;;;16.60;59.20;;;15.37;53.20;98433.31;5080309;28;20521;-75
2022/05/14 07:25:11;;;;;;;4.50;4.10;;;16.60;58.30;;;15.48;53.31;98424.31;5083623;28;21121;-73
2022/05/14 07:27:40;;;;;;;7.00;4.80;;;16.50;58.70;;;15.73;53.22;98436.84;5077179;28;20525;-76
2022/05/14 07:30:08;;;;;;;8.07;5.17;;;16.60;58.50;;;15.83;52.01;98436.25;5083835;28;20589;-72
2022/05/14 07:32:36;;;;;;;4.70;4.13;;;16.80;57.80;;;15.86;52.74;98441.22;5078997;28;20516;-73
2022/05/14 07:35:03;;;;;;;5.83;4.20;;;16.80;58.00;;;16.03;52.01;98433.16;5074725;28;21028;-74
2022/05/14 07:37:35;;;;;;;4.90;4.20;;;16.90;57.90;;;16.10;51.46;98433.84;5081266;28;20467;-72
2022/05/14 07:40:07;;;;;;;4.33;3.93;;;17.00;57.60;;;16.32;50.76;98432.34;5096366;28;20467;-71
2022/05/14 07:42:41;;;;;;;3.67;3.30;;;17.20;57.30;;;16.42;49.64;98430.63;5073582;28;20478;-72
2022/05/14 07:45:11;;;;;;;6.90;3.40;;;17.40;56.20;;;16.14;49.95;98420.56;5072680;28;20534;-75
2022/05/14 07:47:40;;;;;;;4.77;3.50;;;17.30;55.80;;;16.38;49.79;98436.84;5068865;28;20965;-77
2022/05/14 07:50:08;;;;;;;5.67;3.53;;;17.30;55.90;;;16.58;48.82;98436.38;5071513;28;20466;-76
2022/05/14 07:52:36;;;;;;;4.33;2.80;;;17.50;55.60;;;16.45;48.59;98420.31;5074409;28;20455;-76
2022/05/14 07:55:04;;;;;;;7.43;3.47;;;17.50;54.90;;;16.67;48.31;98426.72;5076211;28;20563;-77
2022/05/14 07:57:32;;;;;;;4.13;3.50;;;17.50;54.90;;;16.57;49.15;98423.81;5076128;28;20455;-75
2022/05/14 08:00:01;;;;;;;6.53;2.73;;;17.60;55.30;;;16.74;47.63;98431.19;5066400;28;20463;-76
2022/05/14 08:02:34;;;;;;;6.73;3.10;;;17.60;54.30;;;16.68;48.65;98431.13;5086797;28;20482;-76
2022/05/14 08:05:03;;;;;;;7.17;3.77;;;17.60;54.60;;;16.82;48.27;98426.16;5085146;28;21006;-75
2022/05/14 08:07:30;;;;;;;5.33;3.17;;;17.70;54.70;;;16.90;47.41;98430.38;5086374;28;20538;-74
2022/05/14 08:09:58;;;;;;;3.60;3.07;;;17.80;54.10;;;16.89;46.88;98430.66;5088314;28;20455;-76
2022/05/14 08:12:26;;;;;;;3.77;2.70;;;17.90;53.60;;;16.80;47.37;98427.50;5086408;28;20467;-76
2022/05/14 08:14:53;;;;;;;4.23;2.60;;;17.70;53.80;;;16.98;47.92;98424.53;5088409;28;20954;-76
2022/05/14 08:17:22;;;;;;;3.77;3.20;;;17.80;54.40;;;16.82;47.39;98398.88;5103776;28;20455;-75
2022/05/14 08:19:49;;;;;;;5.47;2.97;;;18.00;54.10;;;17.40;47.72;98433.41;5087770;28;20893;-75
2022/05/14 08:25:01;;;;;;;5.40;3.37;;;18.30;54.20;;;17.66;46.61;98428.28;5084511;28;20581;-74
2022/05/14 08:27:28;;;;;;;6.10;3.47;;;18.50;54.00;;;17.62;47.36;98428.00;5083744;28;20534;-76
2022/05/14 08:29:54;;;;;;;3.80;3.50;;;18.50;54.30;;;17.46;47.58;98432.41;5088217;28;20465;-76
2022/05/14 08:32:23;;;;;;;5.03;3.30;;;18.40;54.10;;;17.54;47.34;98428.41;5086312;28;21022;-76
2022/05/14 08:34:51;;;;;;;5.17;3.43;;;18.40;54.20;;;17.54;46.80;98425.69;5084650;28;20484;-75
2022/05/14 08:37:17;;;;;;;4.07;3.20;;;18.50;53.60;;;17.54;46.96;98425.69;5086415;28;21049;-75
2022/05/14 08:39:45;;;;;;;5.17;3.80;;;18.40;53.80;;;17.65;46.99;98418.44;5088635;28;20637;-75
2022/05/14 08:42:13;;;;;;;8.20;4.10;;;18.50;54.00;;;17.74;47.66;98425.16;5075729;28;20552;-75
2022/05/14 08:44:44;;;;;;;4.50;3.53;;;18.60;54.50;;;17.99;46.54;98418.38;5073012;28;21105;-75
2022/05/14 08:47:29;;;;;;;4.50;3.60;;;18.80;53.90;;;18.09;46.13;98429.44;5085949;28;20474;-75
2022/05/14 08:49:57;;;;;;;3.70;2.53;;;18.90;53.70;;;18.12;45.37;98433.56;5087605;28;20451;-76
2022/05/14 08:52:28;;;;;;;3.40;2.60;;;19.00;53.10;;;18.05;44.35;98422.03;5086439;28;20447;-76
2022/05/14 08:55:02;;;;;;;5.50;2.67;;;19.00;52.30;;;18.01;44.94;98429.03;5086221;28;20493;-76
2022/05/14 08:57:45;;;;;;;2.70;2.50;;;18.90;52.60;;;18.20;44.14;98421.38;5086408;28;20455;-76
2022/05/14 09:00:13;;;;;;;3.23;2.63;;;19.00;52.20;;;18.31;44.25;98416.84;5089163;28;20466;-76
2022/05/14 09:02:46;;;;;;;3.50;2.50;;;19.10;52.00;;;18.31;44.05;98422.31;5085811;28;20663;-75
2022/05/14 09:05:16;;;;;;;3.10;2.00;;;19.20;52.00;;;18.35;43.42;98413.34;5080710;28;20497;-76
2022/05/14 09:07:44;;;;;;;4.17;2.07;;;19.20;51.40;;;18.30;44.57;98416.03;5087026;28;20790;-76
2022/05/14 09:10:24;;;;;;;5.03;3.00;;;19.10;52.10;;;18.28;44.41;98407.25;5088630;28;20751;-75
2022/05/14 09:12:57;;;;;;;3.10;2.80;;;19.20;52.00;;;18.39;44.32;98419.13;5083641;28;20901;-76
2022/05/14 09:15:29;;;;;;;4.60;2.93;;;19.20;51.80;;;18.20;43.59;98404.97;5080121;28;20462;-77
2022/05/14 09:18:08;;;;;;;5.60;2.80;;;19.10;51.30;;;18.49;43.32;98412.94;5087235;28;20454;-76
2022/05/14 09:20:44;;;;;;;2.60;2.40;;;19.20;51.00;;;18.64;43.79;98407.59;5084726;28;20452;-76
2022/05/14 09:23:11;;;;;;;3.70;2.30;;;19.40;51.60;;;19.00;43.90;98401.66;5083253;28;20527;-76
2022/05/14 09:25:42;;;;;;;3.53;2.10;;;19.70;52.00;;;19.24;42.57;98406.75;5083031;28;20480;-76
2022/05/14 09:28:13;;;;;;;5.50;2.20;;;20.00;51.50;;;19.14;41.72;98404.78;5086550;28;20479;-75
2022/05/14 09:30:46;;;;;;;4.00;2.20;;;20.00;50.60;;;19.25;41.74;98403.75;5085312;28;20451;-76
2022/05/14 09:33:28;;;;;;;3.33;2.10;;;20.00;50.40;;;18.95;42.50;98416.09;5085135;28;20449;-76
2022/05/14 09:35:57;;;;;;;2.77;2.13;;;19.80;50.30;;;18.85;41.79;98405.06;5087368;28;20464;-78
2022/05/14 09:38:26;;;;;;;3.87;2.10;;;19.80;50.00;;;18.82;42.11;98411.06;5091372;28;20967;-76
2022/05/14 09:40:55;;;;;;;2.60;2.40;;;19.70;50.00;;;19.05;41.84;98400.88;5086844;28;20546;-77
2022/05/14 09:43:34;;;;;;;4.90;2.50;;;19.80;50.20;;;19.05;42.19;98404.44;5091462;28;20458;-78
2022/05/14 09:46:04;;;;;;;3.70;2.23;;;19.80;50.40;;;19.11;42.02;98402.56;5090132;28;20462;-75
2022/05/14 09:48:37;;;;;;;4.00;2.00;;;19.90;50.30;;;19.16;42.31;98404.53;5091866;28;20530;-75
2022/05/14 09:51:09;;;;;;;4.03;2.57;;;20.00;50.50;;;19.13;42.71;98394.91;5088831;28;20537;-75
2022/05/14 09:53:40;;;;;;;3.50;1.90;;;20.00;50.50;;;19.26;42.87;98396.38;5083280;28;20779;-76
2022/05/14 09:56:36;;;;;;;5.03;2.43;;;20.10;50.80;;;19.42;39.52;98391.81;5081698;28;20769;-77
2022/05/14 09:59:48;;;;;;;4.97;2.30;;;20.20;49.30;;;19.28;38.78;98363.22;5082307;28;20449;-76
2022/05/14 10:02:27;;;;;;;2.80;1.60;;;20.30;47.90;;;19.80;38.69;98398.06;5062712;28;20449;-76
2022/05/14 10:05:09;;;;;;;2.60;1.80;;;20.50;48.00;;;20.03;38.66;98398.72;5087375;28;20995;-75
2022/05/14 10:07:43;;;;;;;4.50;2.03;;;20.70;48.30;;;19.96;40.18;98396.22;5090219;28;20534;-79
2022/05/14 10:10:22;;;;;;;2.87;2.07;;;20.80;49.10;;;19.69;40.69;98385.41;5090912;28;20545;-76
2022/05/14 10:12:56;;;;;;;3.77;1.90;;;20.60;49.20;;;19.54;40.59;98383.38;5090717;28;20481;-76
2022/05/14 10:15:38;;;;;;;1.73;1.53;;;20.40;49.00;;;19.66;40.72;98377.72;5090295;28;20944;-77
2022/05/14 10:18:22;;;;;;;2.70;2.10;;;20.40;49.20;;;19.99;40.00;98375.69;5091230;28;20457;-77
2022/05/14 10:20:56;;;;;;;3.00;1.60;;;20.70;49.40;;;20.19;36.66;98383.16;5088469;28;20817;-76
2022/05/14 10:26:58;;;;;;;2.53;1.57;;;21.00;45.90;;;20.36;36.22;98377.41;5090020;28;20438;-78
2022/05/14 10:29:40;;;;;;;2.20;1.70;;;21.10;46.20;;;20.39;36.91;98382.34;5090684;28;20557;-76
2022/05/14 10:32:09;;;;;;;2.00;1.60;;;21.20;46.30;;;20.32;37.05;98370.84;5087346;28;20925;-76
2022/05/14 10:34:49;;;;;;;6.43;1.70;;;21.20;46.70;;;20.30;36.84;98366.72;5087602;28;20517;-76
2022/05/14 10:37:29;;;;;;;5.27;2.07;;;21.20;46.70;;;20.04;38.19;98364.72;5088623;28;20521;-77
2022/05/14 10:40:07;;;;;;;3.17;1.67;;;21.00;46.90;;;20.34;37.98;98368.63;5081667;28;20515;-76
2022/05/14 10:42:44;;;;;;;3.63;1.50;;;21.00;47.20;;;20.16;35.81;98363.66;5085919;28;20526;-78
2022/05/14 10:45:17;;;;;;;2.93;1.47;;;21.00;45.40;;;20.28;36.90;98363.41;5090357;28;20451;-76
2022/05/14 10:47:48;;;;;;;1.50;1.13;;;21.00;46.20;;;20.35;34.08;98370.28;5090545;28;20935;-79
2022/05/14 10:50:20;;;;;;;4.30;1.50;;;21.10;44.10;;;20.57;34.69;98372.00;5089496;28;20471;-77